sensor_id;sensor_type;location;lat;lon;timestamp;temperature;humidity
20594;DHT22;10455;48.732;10.266;2024-01-15T00:02:01;-3.70;99.90
20594;DHT22;10455;48.732;10.266;2024-01-15T00:07:03;-3.70;99.90
20594;DHT22;10455;48.732;10.266;2024-01-15T00:12:06;-3.60;99.90
20594;DHT22;10455;48.732;10.266;2024-01-15T00:17:09;-3.40;99.90
20594;DHT22;10455;48.732;10.266;2024-01-15T00:22:11;-3.30;99.90
20594;DHT22;10455;48.732;10.266;2024-01-15T00:27:13;-3.30;99.90
20594;DHT22;10455;48.732;10.266;2024-01-15T00:32:16;-3.10;99.90
20594;DHT22;10455;48.732;10.266;2024-01-15T00:37:18;-3.00;99.90
20594;DHT22;10455;48.732;10.266;2024-01-15T00:42:20;-3.00;99.90
20594;DHT22;10455;48.732;10.266;2024-01-15T00:47:24;-2.90;99.90
20594;DHT22;10455;48.732;10.266;2024-01-15T00:52:26;-2.80;99.90
20594;DHT22;10455;48.732;10.266;2024-01-15T00:57:27;-2.90;99.90
20594;DHT22;10455;48.732;10.266;2024-01-15T01:02:31;-3.00;99.90
20594;DHT22;10455;48.732;10.266;2024-01-15T01:07:32;-3.20;99.90
20594;DHT22;10455;48.732;10.266;2024-01-15T01:12:34;-3.60;99.90
20594;DHT22;10455;48.732;10.266;2024-01-15T01:17:38;-3.80;99.90
20594;DHT22;10455;48.732;10.266;2024-01-15T01:22:39;-4.00;99.90
20594;DHT22;10455;48.732;10.266;2024-01-15T01:27:41;-4.10;99.90
20594;DHT22;10455;48.732;10.266;2024-01-15T01:32:44;-4.20;99.90
20594;DHT22;10455;48.732;10.266;2024-01-15T01:37:47;-4.40;99.90
20594;DHT22;10455;48.732;10.266;2024-01-15T01:42:49;-4.40;99.90
20594;DHT22;10455;48.732;10.266;2024-01-15T01:47:52;-4.50;99.90
20594;DHT22;10455;48.732;10.266;2024-01-15T01:52:54;-4.40;99.90
20594;DHT22;10455;48.732;10.266;2024-01-15T01:57:57;-4.40;99.90
20594;DHT22;10455;48.732;10.266;2024-01-15T02:03:00;-4.40;99.90
20594;DHT22;10455;48.732;10.266;2024-01-15T02:08:04;-4.40;99.90
20594;DHT22;10455;48.732;10.266;2024-01-15T02:13:06;-4.30;99.90
20594;DHT22;10455;48.732;10.266;2024-01-15T02:18:09;-4.10;99.90
20594;DHT22;10455;48.732;10.266;2024-01-15T02:23:14;-4.00;99.90
20594;DHT22;10455;48.732;10.266;2024-01-15T02:28:17;-3.70;99.90
20594;DHT22;10455;48.732;10.266;2024-01-15T02:33:19;-3.50;99.90
20594;DHT22;10455;48.732;10.266;2024-01-15T02:38:22;-3.10;99.90
20594;DHT22;10455;48.732;10.266;2024-01-15T02:43:24;-2.90;99.90
20594;DHT22;10455;48.732;10.266;2024-01-15T02:48:26;-2.80;99.90
20594;DHT22;10455;48.732;10.266;2024-01-15T02:53:29;-2.50;99.90
20594;DHT22;10455;48.732;10.266;2024-01-15T02:58:31;-2.50;99.90
20594;DHT22;10455;48.732;10.266;2024-01-15T03:03:33;-2.40;99.90
20594;DHT22;10455;48.732;10.266;2024-01-15T03:08:37;-2.20;99.90
20594;DHT22;10455;48.732;10.266;2024-01-15T03:13:38;-2.30;99.90
20594;DHT22;10455;48.732;10.266;2024-01-15T03:18:49;-2.20;99.90
20594;DHT22;10455;48.732;10.266;2024-01-15T03:23:52;-2.10;99.90
20594;DHT22;10455;48.732;10.266;2024-01-15T03:28:54;-2.00;99.90
20594;DHT22;10455;48.732;10.266;2024-01-15T03:33:56;-1.90;99.90
20594;DHT22;10455;48.732;10.266;2024-01-15T03:38:59;-2.00;99.90
20594;DHT22;10455;48.732;10.266;2024-01-15T03:44:01;-2.00;99.90
20594;DHT22;10455;48.732;10.266;2024-01-15T03:49:03;-1.80;99.90
20594;DHT22;10455;48.732;10.266;2024-01-15T03:54:06;-1.80;99.90
20594;DHT22;10455;48.732;10.266;2024-01-15T03:59:08;-1.70;99.90
20594;DHT22;10455;48.732;10.266;2024-01-15T04:04:10;-1.80;99.90
20594;DHT22;10455;48.732;10.266;2024-01-15T04:09:13;-1.80;99.90
20594;DHT22;10455;48.732;10.266;2024-01-15T04:14:15;-1.90;99.90
20594;DHT22;10455;48.732;10.266;2024-01-15T04:19:17;-1.70;99.90
20594;DHT22;10455;48.732;10.266;2024-01-15T04:24:20;-1.80;99.90
20594;DHT22;10455;48.732;10.266;2024-01-15T04:29:22;-1.70;99.90
20594;DHT22;10455;48.732;10.266;2024-01-15T04:34:24;-1.70;99.90
20594;DHT22;10455;48.732;10.266;2024-01-15T04:39:28;-1.80;99.90
20594;DHT22;10455;48.732;10.266;2024-01-15T04:44:30;-1.80;99.90
20594;DHT22;10455;48.732;10.266;2024-01-15T04:49:31;-1.70;99.90
20594;DHT22;10455;48.732;10.266;2024-01-15T04:54:35;-1.80;99.90
20594;DHT22;10455;48.732;10.266;2024-01-15T04:59:36;-1.80;99.90
20594;DHT22;10455;48.732;10.266;2024-01-15T05:04:38;-1.80;99.90
20594;DHT22;10455;48.732;10.266;2024-01-15T05:09:42;-1.70;99.90
20594;DHT22;10455;48.732;10.266;2024-01-15T05:14:44;-1.80;99.90
20594;DHT22;10455;48.732;10.266;2024-01-15T05:19:46;-1.70;99.90
20594;DHT22;10455;48.732;10.266;2024-01-15T05:24:49;-1.70;99.90
20594;DHT22;10455;48.732;10.266;2024-01-15T05:29:51;-1.60;99.90
20594;DHT22;10455;48.732;10.266;2024-01-15T05:34:53;-1.70;99.90
20594;DHT22;10455;48.732;10.266;2024-01-15T05:39:56;-1.60;99.90
20594;DHT22;10455;48.732;10.266;2024-01-15T05:44:58;-1.70;99.90
20594;DHT22;10455;48.732;10.266;2024-01-15T05:50:03;-1.60;99.90
20594;DHT22;10455;48.732;10.266;2024-01-15T05:55:07;-1.70;99.90
20594;DHT22;10455;48.732;10.266;2024-01-15T06:00:11;-1.60;99.90
20594;DHT22;10455;48.732;10.266;2024-01-15T06:05:13;-1.60;99.90
20594;DHT22;10455;48.732;10.266;2024-01-15T06:10:16;-1.50;99.90
20594;DHT22;10455;48.732;10.266;2024-01-15T06:15:18;-1.40;99.90
20594;DHT22;10455;48.732;10.266;2024-01-15T06:20:20;-1.60;99.90
20594;DHT22;10455;48.732;10.266;2024-01-15T06:25:23;-1.60;99.90
20594;DHT22;10455;48.732;10.266;2024-01-15T06:30:25;-1.60;99.90
20594;DHT22;10455;48.732;10.266;2024-01-15T06:35:27;-1.50;99.90
20594;DHT22;10455;48.732;10.266;2024-01-15T06:40:30;-1.60;99.90
20594;DHT22;10455;48.732;10.266;2024-01-15T06:45:32;-1.50;99.90
20594;DHT22;10455;48.732;10.266;2024-01-15T06:50:34;-1.60;99.90
20594;DHT22;10455;48.732;10.266;2024-01-15T06:55:38;-1.60;99.90
20594;DHT22;10455;48.732;10.266;2024-01-15T07:00:40;-1.50;99.90
20594;DHT22;10455;48.732;10.266;2024-01-15T07:05:42;-1.40;99.90
20594;DHT22;10455;48.732;10.266;2024-01-15T07:10:45;-1.30;99.90
20594;DHT22;10455;48.732;10.266;2024-01-15T07:15:47;-1.40;99.90
20594;DHT22;10455;48.732;10.266;2024-01-15T07:20:49;-1.40;99.90
20594;DHT22;10455;48.732;10.266;2024-01-15T07:25:52;-1.30;99.90
20594;DHT22;10455;48.732;10.266;2024-01-15T07:30:54;-1.20;99.90
20594;DHT22;10455;48.732;10.266;2024-01-15T07:35:56;-1.20;99.90
20594;DHT22;10455;48.732;10.266;2024-01-15T07:41:00;-1.10;99.90
20594;DHT22;10455;48.732;10.266;2024-01-15T07:46:02;-1.10;99.90
20594;DHT22;10455;48.732;10.266;2024-01-15T07:51:04;-1.10;99.90
20594;DHT22;10455;48.732;10.266;2024-01-15T07:56:08;-1.10;99.90
20594;DHT22;10455;48.732;10.266;2024-01-15T08:01:10;-1.10;99.90
20594;DHT22;10455;48.732;10.266;2024-01-15T08:06:12;-0.90;99.90
20594;DHT22;10455;48.732;10.266;2024-01-15T08:11:15;-0.60;99.90
20594;DHT22;10455;48.732;10.266;2024-01-15T08:16:17;-0.40;99.90
20594;DHT22;10455;48.732;10.266;2024-01-15T08:21:19;-0.40;99.90
20594;DHT22;10455;48.732;10.266;2024-01-15T08:26:22;-0.30;99.90
20594;DHT22;10455;48.732;10.266;2024-01-15T08:31:24;-0.30;99.90
20594;DHT22;10455;48.732;10.266;2024-01-15T08:36:26;-0.20;99.90
20594;DHT22;10455;48.732;10.266;2024-01-15T08:41:32;-0.10;99.90
20594;DHT22;10455;48.732;10.266;2024-01-15T08:46:35;-0.20;99.90
20594;DHT22;10455;48.732;10.266;2024-01-15T08:51:38;-0.10;99.90
20594;DHT22;10455;48.732;10.266;2024-01-15T08:56:41;0.20;99.90
20594;DHT22;10455;48.732;10.266;2024-01-15T09:01:43;0.50;99.90
20594;DHT22;10455;48.732;10.266;2024-01-15T09:06:45;0.60;99.90
20594;DHT22;10455;48.732;10.266;2024-01-15T09:11:48;0.50;99.90
20594;DHT22;10455;48.732;10.266;2024-01-15T09:16:51;0.40;99.90
20594;DHT22;10455;48.732;10.266;2024-01-15T09:21:52;0.20;99.90
20594;DHT22;10455;48.732;10.266;2024-01-15T09:26:56;0.50;99.90
20594;DHT22;10455;48.732;10.266;2024-01-15T09:31:58;0.50;99.90
20594;DHT22;10455;48.732;10.266;2024-01-15T09:37:00;0.40;99.90
20594;DHT22;10455;48.732;10.266;2024-01-15T09:42:06;0.30;99.90
20594;DHT22;10455;48.732;10.266;2024-01-15T09:47:09;0.40;99.90
20594;DHT22;10455;48.732;10.266;2024-01-15T09:52:11;0.70;99.90
20594;DHT22;10455;48.732;10.266;2024-01-15T09:57:15;0.60;99.90
20594;DHT22;10455;48.732;10.266;2024-01-15T10:02:17;0.60;99.90
20594;DHT22;10455;48.732;10.266;2024-01-15T10:07:19;0.60;99.90
20594;DHT22;10455;48.732;10.266;2024-01-15T10:12:24;0.30;99.90
20594;DHT22;10455;48.732;10.266;2024-01-15T10:17:27;0.70;99.90
20594;DHT22;10455;48.732;10.266;2024-01-15T10:22:29;1.20;99.90
20594;DHT22;10455;48.732;10.266;2024-01-15T10:27:33;1.20;99.90
20594;DHT22;10455;48.732;10.266;2024-01-15T10:32:35;1.10;99.90
20594;DHT22;10455;48.732;10.266;2024-01-15T10:37:37;1.20;99.90
20594;DHT22;10455;48.732;10.266;2024-01-15T10:42:40;1.30;99.90
20594;DHT22;10455;48.732;10.266;2024-01-15T10:47:42;1.20;99.90
20594;DHT22;10455;48.732;10.266;2024-01-15T10:52:45;0.60;99.90
20594;DHT22;10455;48.732;10.266;2024-01-15T10:57:48;0.60;99.90
20594;DHT22;10455;48.732;10.266;2024-01-15T11:02:51;0.70;99.90
20594;DHT22;10455;48.732;10.266;2024-01-15T11:07:56;0.80;99.90
20594;DHT22;10455;48.732;10.266;2024-01-15T11:12:59;0.70;99.90
20594;DHT22;10455;48.732;10.266;2024-01-15T11:18:01;1.00;99.90
20594;DHT22;10455;48.732;10.266;2024-01-15T11:23:06;0.90;99.90
20594;DHT22;10455;48.732;10.266;2024-01-15T11:28:10;0.80;99.90
20594;DHT22;10455;48.732;10.266;2024-01-15T11:33:33;0.80;99.90
20594;DHT22;10455;48.732;10.266;2024-01-15T11:38:35;0.90;99.90
20594;DHT22;10455;48.732;10.266;2024-01-15T11:43:38;0.80;99.90
20594;DHT22;10455;48.732;10.266;2024-01-15T11:48:44;0.80;99.90
20594;DHT22;10455;48.732;10.266;2024-01-15T11:53:48;0.80;99.90
20594;DHT22;10455;48.732;10.266;2024-01-15T11:58:55;0.70;99.90
20594;DHT22;10455;48.732;10.266;2024-01-15T12:03:58;0.60;99.90
20594;DHT22;10455;48.732;10.266;2024-01-15T12:09:06;0.10;99.90
20594;DHT22;10455;48.732;10.266;2024-01-15T12:14:09;-0.10;99.90
20594;DHT22;10455;48.732;10.266;2024-01-15T12:19:11;0.30;99.90
20594;DHT22;10455;48.732;10.266;2024-01-15T12:24:13;0.00;99.90
20594;DHT22;10455;48.732;10.266;2024-01-15T12:29:19;0.10;99.90
20594;DHT22;10455;48.732;10.266;2024-01-15T12:34:21;0.30;99.90
20594;DHT22;10455;48.732;10.266;2024-01-15T12:39:24;-0.10;99.90
20594;DHT22;10455;48.732;10.266;2024-01-15T12:44:28;0.00;99.90
20594;DHT22;10455;48.732;10.266;2024-01-15T12:49:30;0.10;99.90
20594;DHT22;10455;48.732;10.266;2024-01-15T12:54:32;0.20;99.90
20594;DHT22;10455;48.732;10.266;2024-01-15T12:59:35;0.20;99.90
20594;DHT22;10455;48.732;10.266;2024-01-15T13:04:37;0.10;99.90
20594;DHT22;10455;48.732;10.266;2024-01-15T13:09:39;0.00;99.90
20594;DHT22;10455;48.732;10.266;2024-01-15T13:14:42;-0.20;99.90
20594;DHT22;10455;48.732;10.266;2024-01-15T13:19:44;0.00;99.90
20594;DHT22;10455;48.732;10.266;2024-01-15T13:24:46;0.20;99.90
20594;DHT22;10455;48.732;10.266;2024-01-15T13:29:49;0.30;99.90
20594;DHT22;10455;48.732;10.266;2024-01-15T13:34:51;0.30;99.90
20594;DHT22;10455;48.732;10.266;2024-01-15T13:39:54;0.50;99.90
20594;DHT22;10455;48.732;10.266;2024-01-15T13:44:58;0.60;99.90
20594;DHT22;10455;48.732;10.266;2024-01-15T13:50:00;0.10;99.90
20594;DHT22;10455;48.732;10.266;2024-01-15T13:55:02;-0.20;99.90
20594;DHT22;10455;48.732;10.266;2024-01-15T14:00:06;-0.40;99.90
20594;DHT22;10455;48.732;10.266;2024-01-15T14:05:12;-0.10;99.90
20594;DHT22;10455;48.732;10.266;2024-01-15T14:10:14;-0.40;99.90
20594;DHT22;10455;48.732;10.266;2024-01-15T14:15:18;-0.30;99.90
20594;DHT22;10455;48.732;10.266;2024-01-15T14:20:21;-0.30;99.90
20594;DHT22;10455;48.732;10.266;2024-01-15T14:25:23;-0.20;99.90
20594;DHT22;10455;48.732;10.266;2024-01-15T14:30:27;-0.20;99.90
20594;DHT22;10455;48.732;10.266;2024-01-15T14:35:29;-0.40;99.90
20594;DHT22;10455;48.732;10.266;2024-01-15T14:40:30;0.10;99.90
20594;DHT22;10455;48.732;10.266;2024-01-15T14:45:34;0.10;99.90
20594;DHT22;10455;48.732;10.266;2024-01-15T14:50:36;0.10;99.90
20594;DHT22;10455;48.732;10.266;2024-01-15T14:55:38;0.20;99.90
20594;DHT22;10455;48.732;10.266;2024-01-15T15:00:41;0.20;99.90
20594;DHT22;10455;48.732;10.266;2024-01-15T15:05:43;0.20;99.90
20594;DHT22;10455;48.732;10.266;2024-01-15T15:10:45;-0.10;99.90
20594;DHT22;10455;48.732;10.266;2024-01-15T15:15:49;-0.20;99.90
20594;DHT22;10455;48.732;10.266;2024-01-15T15:20:50;-0.50;99.90
20594;DHT22;10455;48.732;10.266;2024-01-15T15:25:52;-0.30;99.90
20594;DHT22;10455;48.732;10.266;2024-01-15T15:30:56;-0.20;99.90
20594;DHT22;10455;48.732;10.266;2024-01-15T15:35:58;-0.10;99.90
20594;DHT22;10455;48.732;10.266;2024-01-15T15:41:05;-0.30;99.90
20594;DHT22;10455;48.732;10.266;2024-01-15T15:46:08;-0.40;99.90
20594;DHT22;10455;48.732;10.266;2024-01-15T15:51:10;-0.50;99.90
20594;DHT22;10455;48.732;10.266;2024-01-15T15:56:12;-0.80;99.90
20594;DHT22;10455;48.732;10.266;2024-01-15T16:01:15;-1.00;99.90
20594;DHT22;10455;48.732;10.266;2024-01-15T16:06:17;-1.00;99.90
20594;DHT22;10455;48.732;10.266;2024-01-15T16:11:19;-0.90;99.90
20594;DHT22;10455;48.732;10.266;2024-01-15T16:16:22;-0.80;99.90
20594;DHT22;10455;48.732;10.266;2024-01-15T16:21:24;-0.70;99.90
20594;DHT22;10455;48.732;10.266;2024-01-15T16:26:26;-0.90;99.90
20594;DHT22;10455;48.732;10.266;2024-01-15T16:31:29;-1.30;99.90
20594;DHT22;10455;48.732;10.266;2024-01-15T16:36:32;-1.50;99.90
20594;DHT22;10455;48.732;10.266;2024-01-15T16:41:33;-1.40;99.90
20594;DHT22;10455;48.732;10.266;2024-01-15T16:46:37;-1.40;99.90
20594;DHT22;10455;48.732;10.266;2024-01-15T16:51:39;-1.60;99.90
20594;DHT22;10455;48.732;10.266;2024-01-15T16:56:40;-1.90;99.90
20594;DHT22;10455;48.732;10.266;2024-01-15T17:01:44;-2.00;99.90
20594;DHT22;10455;48.732;10.266;2024-01-15T17:06:46;-2.00;99.90
20594;DHT22;10455;48.732;10.266;2024-01-15T17:11:48;-1.80;99.90
20594;DHT22;10455;48.732;10.266;2024-01-15T17:16:51;-1.60;99.90
20594;DHT22;10455;48.732;10.266;2024-01-15T17:21:55;-1.60;99.90
20594;DHT22;10455;48.732;10.266;2024-01-15T17:26:57;-1.80;99.90
20594;DHT22;10455;48.732;10.266;2024-01-15T17:32:01;-2.10;99.90
20594;DHT22;10455;48.732;10.266;2024-01-15T17:37:03;-2.10;99.90
20594;DHT22;10455;48.732;10.266;2024-01-15T17:42:05;-1.90;99.90
20594;DHT22;10455;48.732;10.266;2024-01-15T17:47:10;-1.80;99.90
20594;DHT22;10455;48.732;10.266;2024-01-15T17:52:12;-1.80;99.90
20594;DHT22;10455;48.732;10.266;2024-01-15T17:57:14;-2.20;99.90
20594;DHT22;10455;48.732;10.266;2024-01-15T18:02:17;-2.50;99.90
20594;DHT22;10455;48.732;10.266;2024-01-15T18:07:19;-2.60;99.90
20594;DHT22;10455;48.732;10.266;2024-01-15T18:12:21;-2.40;99.90
20594;DHT22;10455;48.732;10.266;2024-01-15T18:17:24;-2.50;99.90
20594;DHT22;10455;48.732;10.266;2024-01-15T18:22:27;-2.60;99.90
20594;DHT22;10455;48.732;10.266;2024-01-15T18:27:29;-2.60;99.90
20594;DHT22;10455;48.732;10.266;2024-01-15T18:32:32;-2.80;99.90
20594;DHT22;10455;48.732;10.266;2024-01-15T18:37:34;-2.80;99.90
20594;DHT22;10455;48.732;10.266;2024-01-15T18:42:36;-2.60;99.90
20594;DHT22;10455;48.732;10.266;2024-01-15T18:47:39;-2.20;99.90
20594;DHT22;10455;48.732;10.266;2024-01-15T18:52:41;-2.30;99.90
20594;DHT22;10455;48.732;10.266;2024-01-15T18:57:43;-2.50;99.90
20594;DHT22;10455;48.732;10.266;2024-01-15T19:02:46;-2.60;99.90
20594;DHT22;10455;48.732;10.266;2024-01-15T19:07:48;-2.70;99.90
20594;DHT22;10455;48.732;10.266;2024-01-15T19:12:50;-2.60;99.90
20594;DHT22;10455;48.732;10.266;2024-01-15T19:17:53;-2.60;99.90
20594;DHT22;10455;48.732;10.266;2024-01-15T19:22:55;-2.60;99.90
20594;DHT22;10455;48.732;10.266;2024-01-15T19:27:57;-2.60;99.90
20594;DHT22;10455;48.732;10.266;2024-01-15T19:33:00;-2.70;99.90
20594;DHT22;10455;48.732;10.266;2024-01-15T19:38:04;-2.80;99.90
20594;DHT22;10455;48.732;10.266;2024-01-15T19:43:06;-2.90;99.90
20594;DHT22;10455;48.732;10.266;2024-01-15T19:48:09;-2.90;99.90
20594;DHT22;10455;48.732;10.266;2024-01-15T19:53:12;-3.00;99.90
20594;DHT22;10455;48.732;10.266;2024-01-15T19:58:14;-3.00;99.90
20594;DHT22;10455;48.732;10.266;2024-01-15T20:03:17;-2.60;99.90
20594;DHT22;10455;48.732;10.266;2024-01-15T20:08:19;-2.70;99.90
20594;DHT22;10455;48.732;10.266;2024-01-15T20:13:21;-2.50;99.90
20594;DHT22;10455;48.732;10.266;2024-01-15T20:18:27;-2.20;99.90
20594;DHT22;10455;48.732;10.266;2024-01-15T20:23:28;-2.00;99.90
20594;DHT22;10455;48.732;10.266;2024-01-15T20:28:30;-1.90;99.90
20594;DHT22;10455;48.732;10.266;2024-01-15T20:33:34;-2.10;99.90
20594;DHT22;10455;48.732;10.266;2024-01-15T20:38:36;-2.00;99.90
20594;DHT22;10455;48.732;10.266;2024-01-15T20:43:39;-1.90;99.90
20594;DHT22;10455;48.732;10.266;2024-01-15T20:48:42;-2.00;99.90
20594;DHT22;10455;48.732;10.266;2024-01-15T20:53:45;-1.70;99.90
20594;DHT22;10455;48.732;10.266;2024-01-15T20:58:48;-1.80;99.90
20594;DHT22;10455;48.732;10.266;2024-01-15T21:03:52;-1.90;99.90
20594;DHT22;10455;48.732;10.266;2024-01-15T21:08:54;-1.70;99.90
20594;DHT22;10455;48.732;10.266;2024-01-15T21:13:56;-1.70;99.90
20594;DHT22;10455;48.732;10.266;2024-01-15T21:18:59;-1.90;99.90
20594;DHT22;10455;48.732;10.266;2024-01-15T21:24:02;-1.80;99.90
20594;DHT22;10455;48.732;10.266;2024-01-15T21:29:04;-1.70;99.90
20594;DHT22;10455;48.732;10.266;2024-01-15T21:34:07;-1.60;99.90
20594;DHT22;10455;48.732;10.266;2024-01-15T21:39:09;-1.60;99.90
20594;DHT22;10455;48.732;10.266;2024-01-15T21:44:15;-1.70;99.90
20594;DHT22;10455;48.732;10.266;2024-01-15T21:49:19;-1.80;99.90
20594;DHT22;10455;48.732;10.266;2024-01-15T21:54:21;-1.80;99.90
20594;DHT22;10455;48.732;10.266;2024-01-15T21:59:22;-1.60;99.90
20594;DHT22;10455;48.732;10.266;2024-01-15T22:04:28;-1.60;99.90
20594;DHT22;10455;48.732;10.266;2024-01-15T22:09:30;-1.60;99.90
20594;DHT22;10455;48.732;10.266;2024-01-15T22:14:31;-1.70;99.90
20594;DHT22;10455;48.732;10.266;2024-01-15T22:19:35;-1.50;99.90
20594;DHT22;10455;48.732;10.266;2024-01-15T22:24:37;-1.60;99.90
20594;DHT22;10455;48.732;10.266;2024-01-15T22:29:39;-1.60;99.90
20594;DHT22;10455;48.732;10.266;2024-01-15T22:34:42;-1.60;99.90
20594;DHT22;10455;48.732;10.266;2024-01-15T22:39:44;-1.70;99.90
20594;DHT22;10455;48.732;10.266;2024-01-15T22:44:46;-1.60;99.90
20594;DHT22;10455;48.732;10.266;2024-01-15T22:49:49;-1.70;99.90
20594;DHT22;10455;48.732;10.266;2024-01-15T22:54:51;-1.70;99.90
20594;DHT22;10455;48.732;10.266;2024-01-15T22:59:55;-1.70;99.90
20594;DHT22;10455;48.732;10.266;2024-01-15T23:04:58;-1.70;99.90
20594;DHT22;10455;48.732;10.266;2024-01-15T23:10:00;-1.70;99.90
20594;DHT22;10455;48.732;10.266;2024-01-15T23:15:02;-1.90;99.90
20594;DHT22;10455;48.732;10.266;2024-01-15T23:20:07;-1.90;99.90
20594;DHT22;10455;48.732;10.266;2024-01-15T23:25:10;-1.90;99.90
20594;DHT22;10455;48.732;10.266;2024-01-15T23:30:12;-2.10;99.90
20594;DHT22;10455;48.732;10.266;2024-01-15T23:35:15;-2.00;99.90
20594;DHT22;10455;48.732;10.266;2024-01-15T23:40:17;-2.00;99.90
20594;DHT22;10455;48.732;10.266;2024-01-15T23:45:19;-2.10;99.90
20594;DHT22;10455;48.732;10.266;2024-01-15T23:50:22;-2.00;99.90
20594;DHT22;10455;48.732;10.266;2024-01-15T23:55:24;-1.90;99.90
